sensor_id;sensor_type;location;lat;lon;timestamp;temperature;humidity
43679;DHT22;29279;50.858;4.392;2022-09-09T00:04:15;16.60;99.90
43679;DHT22;29279;50.858;4.392;2022-09-09T00:09:18;16.40;99.90
43679;DHT22;29279;50.858;4.392;2022-09-09T00:17:14;16.30;99.90
43679;DHT22;29279;50.858;4.392;2022-09-09T00:19:59;16.30;99.90
43679;DHT22;29279;50.858;4.392;2022-09-09T00:22:29;16.20;99.90
43679;DHT22;29279;50.858;4.392;2022-09-09T00:25:19;16.20;99.90
43679;DHT22;29279;50.858;4.392;2022-09-09T00:27:49;16.30;99.90
43679;DHT22;29279;50.858;4.392;2022-09-09T00:30:22;16.30;99.90
43679;DHT22;29279;50.858;4.392;2022-09-09T00:32:49;16.30;99.90
43679;DHT22;29279;50.858;4.392;2022-09-09T00:37:54;16.30;99.90
43679;DHT22;29279;50.858;4.392;2022-09-09T00:40:51;16.30;99.90
43679;DHT22;29279;50.858;4.392;2022-09-09T00:52:01;16.20;99.90
43679;DHT22;29279;50.858;4.392;2022-09-09T00:54:35;16.30;99.90
43679;DHT22;29279;50.858;4.392;2022-09-09T00:57:25;16.20;99.90
43679;DHT22;29279;50.858;4.392;2022-09-09T01:08:03;16.40;99.90
43679;DHT22;29279;50.858;4.392;2022-09-09T01:13:05;16.40;99.90
43679;DHT22;29279;50.858;4.392;2022-09-09T01:15:39;16.40;99.90
43679;DHT22;29279;50.858;4.392;2022-09-09T01:18:13;16.40;99.90
43679;DHT22;29279;50.858;4.392;2022-09-09T01:27:00;16.60;99.90
43679;DHT22;29279;50.858;4.392;2022-09-09T01:29:28;16.50;99.90
43679;DHT22;29279;50.858;4.392;2022-09-09T01:32:45;16.50;99.90
43679;DHT22;29279;50.858;4.392;2022-09-09T01:34:44;16.50;99.90
43679;DHT22;29279;50.858;4.392;2022-09-09T01:37:11;16.40;99.90
43679;DHT22;29279;50.858;4.392;2022-09-09T01:39:40;16.20;99.90
43679;DHT22;29279;50.858;4.392;2022-09-09T01:42:11;16.20;99.90
43679;DHT22;29279;50.858;4.392;2022-09-09T01:44:38;16.20;99.90
43679;DHT22;29279;50.858;4.392;2022-09-09T01:47:04;16.30;99.90
43679;DHT22;29279;50.858;4.392;2022-09-09T01:49:30;16.30;99.90
43679;DHT22;29279;50.858;4.392;2022-09-09T01:51:58;16.30;99.90
43679;DHT22;29279;50.858;4.392;2022-09-09T01:54:26;16.20;99.90
43679;DHT22;29279;50.858;4.392;2022-09-09T02:02:40;16.10;99.90
43679;DHT22;29279;50.858;4.392;2022-09-09T02:05:45;16.30;99.90
43679;DHT22;29279;50.858;4.392;2022-09-09T02:08:24;16.30;99.90
43679;DHT22;29279;50.858;4.392;2022-09-09T02:13:45;16.10;99.90
43679;DHT22;29279;50.858;4.392;2022-09-09T02:18:55;16.20;99.90
43679;DHT22;29279;50.858;4.392;2022-09-09T02:21:22;16.10;99.90
43679;DHT22;29279;50.858;4.392;2022-09-09T02:23:50;16.10;99.90
43679;DHT22;29279;50.858;4.392;2022-09-09T02:26:17;16.10;99.90
43679;DHT22;29279;50.858;4.392;2022-09-09T02:28:49;16.00;99.90
43679;DHT22;29279;50.858;4.392;2022-09-09T02:31:17;16.10;99.90
43679;DHT22;29279;50.858;4.392;2022-09-09T02:33:47;16.10;99.90
43679;DHT22;29279;50.858;4.392;2022-09-09T02:36:15;16.00;99.90
43679;DHT22;29279;50.858;4.392;2022-09-09T02:38:46;15.90;99.90
43679;DHT22;29279;50.858;4.392;2022-09-09T02:41:20;15.90;99.90
43679;DHT22;29279;50.858;4.392;2022-09-09T02:43:48;16.00;99.90
43679;DHT22;29279;50.858;4.392;2022-09-09T02:46:24;16.00;99.90
43679;DHT22;29279;50.858;4.392;2022-09-09T02:49:38;16.00;99.90
43679;DHT22;29279;50.858;4.392;2022-09-09T02:56:49;16.00;99.90
43679;DHT22;29279;50.858;4.392;2022-09-09T02:59:16;16.00;99.90
43679;DHT22;29279;50.858;4.392;2022-09-09T03:01:43;16.00;99.90
43679;DHT22;29279;50.858;4.392;2022-09-09T03:04:09;16.00;99.90
43679;DHT22;29279;50.858;4.392;2022-09-09T03:06:35;16.00;99.90
43679;DHT22;29279;50.858;4.392;2022-09-09T03:09:01;15.90;99.90
43679;DHT22;29279;50.858;4.392;2022-09-09T03:11:28;16.00;99.90
43679;DHT22;29279;50.858;4.392;2022-09-09T03:13:54;15.90;99.90
43679;DHT22;29279;50.858;4.392;2022-09-09T03:16:22;16.00;99.90
43679;DHT22;29279;50.858;4.392;2022-09-09T03:18:48;15.90;99.90
43679;DHT22;29279;50.858;4.392;2022-09-09T03:21:14;15.90;99.90
43679;DHT22;29279;50.858;4.392;2022-09-09T03:23:40;15.90;99.90
43679;DHT22;29279;50.858;4.392;2022-09-09T03:26:06;15.80;99.90
43679;DHT22;29279;50.858;4.392;2022-09-09T03:28:32;16.00;99.90
43679;DHT22;29279;50.858;4.392;2022-09-09T03:31:03;15.90;99.90
43679;DHT22;29279;50.858;4.392;2022-09-09T03:33:29;15.90;99.90
43679;DHT22;29279;50.858;4.392;2022-09-09T03:35:55;15.90;99.90
43679;DHT22;29279;50.858;4.392;2022-09-09T03:38:23;16.10;99.90
43679;DHT22;29279;50.858;4.392;2022-09-09T03:40:50;15.90;99.90
43679;DHT22;29279;50.858;4.392;2022-09-09T03:43:16;15.80;99.90
43679;DHT22;29279;50.858;4.392;2022-09-09T03:45:46;15.80;99.90
43679;DHT22;29279;50.858;4.392;2022-09-09T03:48:16;15.70;99.90
43679;DHT22;29279;50.858;4.392;2022-09-09T03:50:46;15.80;99.90
43679;DHT22;29279;50.858;4.392;2022-09-09T03:53:13;15.80;99.90
43679;DHT22;29279;50.858;4.392;2022-09-09T03:55:43;15.80;99.90
43679;DHT22;29279;50.858;4.392;2022-09-09T03:58:08;15.80;99.90
43679;DHT22;29279;50.858;4.392;2022-09-09T04:00:34;15.80;99.90
43679;DHT22;29279;50.858;4.392;2022-09-09T04:03:00;16.00;99.90
43679;DHT22;29279;50.858;4.392;2022-09-09T04:05:25;16.00;99.90
43679;DHT22;29279;50.858;4.392;2022-09-09T04:07:51;15.90;99.90
43679;DHT22;29279;50.858;4.392;2022-09-09T04:10:17;15.90;99.90
43679;DHT22;29279;50.858;4.392;2022-09-09T04:12:42;15.90;99.90
43679;DHT22;29279;50.858;4.392;2022-09-09T04:15:08;15.80;99.90
43679;DHT22;29279;50.858;4.392;2022-09-09T04:17:35;15.90;99.90
43679;DHT22;29279;50.858;4.392;2022-09-09T04:20:02;15.80;99.90
43679;DHT22;29279;50.858;4.392;2022-09-09T04:22:28;15.90;99.90
43679;DHT22;29279;50.858;4.392;2022-09-09T04:24:53;15.90;99.90
43679;DHT22;29279;50.858;4.392;2022-09-09T04:27:19;15.80;99.90
43679;DHT22;29279;50.858;4.392;2022-09-09T04:29:45;15.80;99.90
43679;DHT22;29279;50.858;4.392;2022-09-09T04:32:10;15.80;99.90
43679;DHT22;29279;50.858;4.392;2022-09-09T04:34:36;15.90;99.90
43679;DHT22;29279;50.858;4.392;2022-09-09T04:37:02;15.80;99.90
43679;DHT22;29279;50.858;4.392;2022-09-09T04:39:28;15.80;99.90
43679;DHT22;29279;50.858;4.392;2022-09-09T04:41:54;15.70;99.90
43679;DHT22;29279;50.858;4.392;2022-09-09T04:44:20;15.80;99.90
43679;DHT22;29279;50.858;4.392;2022-09-09T04:46:46;15.80;99.90
43679;DHT22;29279;50.858;4.392;2022-09-09T04:49:12;15.80;99.90
43679;DHT22;29279;50.858;4.392;2022-09-09T04:51:37;15.80;99.90
43679;DHT22;29279;50.858;4.392;2022-09-09T04:54:03;15.70;99.90
43679;DHT22;29279;50.858;4.392;2022-09-09T04:56:29;15.70;99.90
43679;DHT22;29279;50.858;4.392;2022-09-09T04:58:55;15.70;99.90
43679;DHT22;29279;50.858;4.392;2022-09-09T05:01:22;15.60;99.90
43679;DHT22;29279;50.858;4.392;2022-09-09T05:03:49;15.50;99.90
43679;DHT22;29279;50.858;4.392;2022-09-09T05:06:17;15.60;99.90
43679;DHT22;29279;50.858;4.392;2022-09-09T05:08:44;15.60;99.90
43679;DHT22;29279;50.858;4.392;2022-09-09T05:11:21;15.70;99.90
43679;DHT22;29279;50.858;4.392;2022-09-09T05:13:48;15.60;99.90
43679;DHT22;29279;50.858;4.392;2022-09-09T05:16:15;15.60;99.90
43679;DHT22;29279;50.858;4.392;2022-09-09T05:18:41;15.60;99.90
43679;DHT22;29279;50.858;4.392;2022-09-09T05:21:12;15.70;99.90
43679;DHT22;29279;50.858;4.392;2022-09-09T05:23:38;15.80;99.90
43679;DHT22;29279;50.858;4.392;2022-09-09T05:26:05;15.90;99.90
43679;DHT22;29279;50.858;4.392;2022-09-09T05:28:34;15.90;99.90
43679;DHT22;29279;50.858;4.392;2022-09-09T05:31:05;15.90;99.90
43679;DHT22;29279;50.858;4.392;2022-09-09T05:33:34;15.80;99.90
43679;DHT22;29279;50.858;4.392;2022-09-09T05:36:03;15.80;99.90
43679;DHT22;29279;50.858;4.392;2022-09-09T05:38:30;15.60;99.90
43679;DHT22;29279;50.858;4.392;2022-09-09T05:40:57;15.70;99.90
43679;DHT22;29279;50.858;4.392;2022-09-09T05:43:24;15.70;99.90
43679;DHT22;29279;50.858;4.392;2022-09-09T05:46:05;15.70;99.90
43679;DHT22;29279;50.858;4.392;2022-09-09T05:48:32;15.70;99.90
43679;DHT22;29279;50.858;4.392;2022-09-09T05:51:00;15.80;99.90
43679;DHT22;29279;50.858;4.392;2022-09-09T05:53:27;15.80;99.90
43679;DHT22;29279;50.858;4.392;2022-09-09T05:56:16;15.90;99.90
43679;DHT22;29279;50.858;4.392;2022-09-09T05:58:45;15.80;99.90
43679;DHT22;29279;50.858;4.392;2022-09-09T06:01:20;15.80;99.90
43679;DHT22;29279;50.858;4.392;2022-09-09T06:03:47;15.80;99.90
43679;DHT22;29279;50.858;4.392;2022-09-09T06:06:16;15.90;99.90
43679;DHT22;29279;50.858;4.392;2022-09-09T06:08:44;16.00;99.90
43679;DHT22;29279;50.858;4.392;2022-09-09T06:11:30;16.00;99.90
43679;DHT22;29279;50.858;4.392;2022-09-09T06:13:56;16.10;99.90
43679;DHT22;29279;50.858;4.392;2022-09-09T06:16:24;16.10;99.90
43679;DHT22;29279;50.858;4.392;2022-09-09T06:18:51;16.20;99.90
43679;DHT22;29279;50.858;4.392;2022-09-09T06:21:22;16.40;99.90
43679;DHT22;29279;50.858;4.392;2022-09-09T06:23:49;16.40;99.90
43679;DHT22;29279;50.858;4.392;2022-09-09T06:26:27;16.40;99.90
43679;DHT22;29279;50.858;4.392;2022-09-09T06:28:54;16.30;99.90
43679;DHT22;29279;50.858;4.392;2022-09-09T06:31:22;16.30;99.90
43679;DHT22;29279;50.858;4.392;2022-09-09T06:33:50;16.50;99.90
43679;DHT22;29279;50.858;4.392;2022-09-09T06:36:21;16.50;99.90
43679;DHT22;29279;50.858;4.392;2022-09-09T06:38:47;16.50;99.90
43679;DHT22;29279;50.858;4.392;2022-09-09T06:41:16;16.50;99.90
43679;DHT22;29279;50.858;4.392;2022-09-09T06:43:42;16.50;99.90
43679;DHT22;29279;50.858;4.392;2022-09-09T06:46:19;16.60;99.90
43679;DHT22;29279;50.858;4.392;2022-09-09T06:48:47;16.50;99.90
43679;DHT22;29279;50.858;4.392;2022-09-09T06:53:42;16.50;99.90
43679;DHT22;29279;50.858;4.392;2022-09-09T06:56:24;16.60;99.90
43679;DHT22;29279;50.858;4.392;2022-09-09T06:58:51;16.60;99.90
43679;DHT22;29279;50.858;4.392;2022-09-09T07:01:19;16.70;99.90
43679;DHT22;29279;50.858;4.392;2022-09-09T07:03:48;16.70;99.90
43679;DHT22;29279;50.858;4.392;2022-09-09T07:06:17;16.80;99.90
43679;DHT22;29279;50.858;4.392;2022-09-09T07:08:49;16.70;99.90
43679;DHT22;29279;50.858;4.392;2022-09-09T07:11:15;16.80;99.90
43679;DHT22;29279;50.858;4.392;2022-09-09T07:13:41;16.80;99.90
43679;DHT22;29279;50.858;4.392;2022-09-09T07:16:12;16.80;99.90
43679;DHT22;29279;50.858;4.392;2022-09-09T07:18:39;16.80;99.90
43679;DHT22;29279;50.858;4.392;2022-09-09T07:21:06;16.90;99.90
43679;DHT22;29279;50.858;4.392;2022-09-09T07:23:32;16.90;99.90
43679;DHT22;29279;50.858;4.392;2022-09-09T07:25:58;16.90;99.90
43679;DHT22;29279;50.858;4.392;2022-09-09T07:28:25;16.90;99.90
43679;DHT22;29279;50.858;4.392;2022-09-09T07:30:59;16.90;99.90
43679;DHT22;29279;50.858;4.392;2022-09-09T07:33:28;16.90;99.90
43679;DHT22;29279;50.858;4.392;2022-09-09T07:36:06;16.90;99.90
43679;DHT22;29279;50.858;4.392;2022-09-09T07:38:37;16.90;99.90
43679;DHT22;29279;50.858;4.392;2022-09-09T07:41:05;16.80;99.90
43679;DHT22;29279;50.858;4.392;2022-09-09T07:43:31;16.90;99.90
43679;DHT22;29279;50.858;4.392;2022-09-09T07:46:00;16.90;99.90
43679;DHT22;29279;50.858;4.392;2022-09-09T07:48:29;16.60;99.90
43679;DHT22;29279;50.858;4.392;2022-09-09T07:51:13;16.40;99.90
43679;DHT22;29279;50.858;4.392;2022-09-09T07:53:40;16.50;99.90
43679;DHT22;29279;50.858;4.392;2022-09-09T07:56:09;16.50;99.90
43679;DHT22;29279;50.858;4.392;2022-09-09T07:58:39;16.50;99.90
43679;DHT22;29279;50.858;4.392;2022-09-09T08:01:10;16.40;99.90
43679;DHT22;29279;50.858;4.392;2022-09-09T08:03:37;16.40;99.90
43679;DHT22;29279;50.858;4.392;2022-09-09T08:06:08;16.50;99.90
43679;DHT22;29279;50.858;4.392;2022-09-09T08:08:35;16.60;99.90
43679;DHT22;29279;50.858;4.392;2022-09-09T08:11:13;16.80;99.90
43679;DHT22;29279;50.858;4.392;2022-09-09T08:13:41;17.10;99.90
43679;DHT22;29279;50.858;4.392;2022-09-09T08:16:13;17.40;99.90
43679;DHT22;29279;50.858;4.392;2022-09-09T08:18:40;17.60;99.90
43679;DHT22;29279;50.858;4.392;2022-09-09T08:21:17;17.60;99.90
43679;DHT22;29279;50.858;4.392;2022-09-09T08:23:45;17.50;99.90
43679;DHT22;29279;50.858;4.392;2022-09-09T08:26:16;17.40;99.90
43679;DHT22;29279;50.858;4.392;2022-09-09T08:28:43;17.30;99.90
43679;DHT22;29279;50.858;4.392;2022-09-09T08:31:18;17.40;99.90
43679;DHT22;29279;50.858;4.392;2022-09-09T08:33:45;17.40;99.90
43679;DHT22;29279;50.858;4.392;2022-09-09T08:36:16;17.40;99.90
43679;DHT22;29279;50.858;4.392;2022-09-09T08:38:42;17.30;99.90
43679;DHT22;29279;50.858;4.392;2022-09-09T08:44:02;17.10;99.90
43679;DHT22;29279;50.858;4.392;2022-09-09T08:47:25;17.10;99.90
43679;DHT22;29279;50.858;4.392;2022-09-09T08:51:57;16.60;99.90
43679;DHT22;29279;50.858;4.392;2022-09-09T08:54:23;16.50;99.90
43679;DHT22;29279;50.858;4.392;2022-09-09T08:56:51;16.30;99.90
43679;DHT22;29279;50.858;4.392;2022-09-09T08:59:18;16.30;99.90
43679;DHT22;29279;50.858;4.392;2022-09-09T09:12:27;16.50;99.90
43679;DHT22;29279;50.858;4.392;2022-09-09T09:14:54;16.60;99.90
43679;DHT22;29279;50.858;4.392;2022-09-09T09:17:24;16.50;99.90
43679;DHT22;29279;50.858;4.392;2022-09-09T09:19:51;16.30;99.90
43679;DHT22;29279;50.858;4.392;2022-09-09T09:25:32;16.30;99.90
43679;DHT22;29279;50.858;4.392;2022-09-09T09:28:11;16.30;99.90
43679;DHT22;29279;50.858;4.392;2022-09-09T09:30:49;16.30;99.90
43679;DHT22;29279;50.858;4.392;2022-09-09T09:33:22;16.30;99.90
43679;DHT22;29279;50.858;4.392;2022-09-09T09:35:50;16.20;99.90
43679;DHT22;29279;50.858;4.392;2022-09-09T09:38:24;16.00;99.90
43679;DHT22;29279;50.858;4.392;2022-09-09T09:40:52;15.90;99.90
43679;DHT22;29279;50.858;4.392;2022-09-09T09:43:37;15.90;99.90
43679;DHT22;29279;50.858;4.392;2022-09-09T09:46:05;15.90;99.90
43679;DHT22;29279;50.858;4.392;2022-09-09T09:48:43;15.90;99.90
43679;DHT22;29279;50.858;4.392;2022-09-09T09:51:10;15.90;99.90
43679;DHT22;29279;50.858;4.392;2022-09-09T09:53:39;16.00;99.90
43679;DHT22;29279;50.858;4.392;2022-09-09T09:56:11;16.00;99.90
43679;DHT22;29279;50.858;4.392;2022-09-09T09:58:50;16.10;99.90
43679;DHT22;29279;50.858;4.392;2022-09-09T10:01:30;16.10;99.90
43679;DHT22;29279;50.858;4.392;2022-09-09T10:04:15;16.20;99.90
43679;DHT22;29279;50.858;4.392;2022-09-09T10:06:42;16.10;99.90
43679;DHT22;29279;50.858;4.392;2022-09-09T10:09:29;16.10;99.90
43679;DHT22;29279;50.858;4.392;2022-09-09T10:20:45;16.10;99.90
43679;DHT22;29279;50.858;4.392;2022-09-09T10:26:19;16.30;99.90
43679;DHT22;29279;50.858;4.392;2022-09-09T10:29:20;16.20;99.90
43679;DHT22;29279;50.858;4.392;2022-09-09T10:37:38;17.40;99.90
43679;DHT22;29279;50.858;4.392;2022-09-09T10:42:34;18.60;99.90
43679;DHT22;29279;50.858;4.392;2022-09-09T10:45:18;19.00;99.90
43679;DHT22;29279;50.858;4.392;2022-09-09T10:51:39;18.70;99.90
43679;DHT22;29279;50.858;4.392;2022-09-09T10:56:30;19.10;99.90
43679;DHT22;29279;50.858;4.392;2022-09-09T10:59:10;19.20;99.90
43679;DHT22;29279;50.858;4.392;2022-09-09T11:01:42;19.00;99.90
43679;DHT22;29279;50.858;4.392;2022-09-09T11:04:32;18.80;99.90
43679;DHT22;29279;50.858;4.392;2022-09-09T11:07:02;18.90;99.90
43679;DHT22;29279;50.858;4.392;2022-09-09T11:09:35;18.90;99.90
43679;DHT22;29279;50.858;4.392;2022-09-09T11:12:02;19.20;99.90
43679;DHT22;29279;50.858;4.392;2022-09-09T11:15:06;19.20;99.90
43679;DHT22;29279;50.858;4.392;2022-09-09T11:17:46;19.20;99.90
43679;DHT22;29279;50.858;4.392;2022-09-09T11:20:14;19.00;99.90
43679;DHT22;29279;50.858;4.392;2022-09-09T11:23:20;18.90;99.90
43679;DHT22;29279;50.858;4.392;2022-09-09T11:26:00;19.00;99.90
43679;DHT22;29279;50.858;4.392;2022-09-09T11:32:00;18.70;99.90
43679;DHT22;29279;50.858;4.392;2022-09-09T11:37:21;18.70;99.90
43679;DHT22;29279;50.858;4.392;2022-09-09T11:42:42;18.70;99.90
43679;DHT22;29279;50.858;4.392;2022-09-09T11:45:19;18.50;99.90
43679;DHT22;29279;50.858;4.392;2022-09-09T11:47:57;18.40;99.90
43679;DHT22;29279;50.858;4.392;2022-09-09T11:52:49;18.60;99.90
43679;DHT22;29279;50.858;4.392;2022-09-09T11:55:25;18.70;99.90
43679;DHT22;29279;50.858;4.392;2022-09-09T11:58:03;18.70;99.90
43679;DHT22;29279;50.858;4.392;2022-09-09T12:02:58;18.60;99.90
43679;DHT22;29279;50.858;4.392;2022-09-09T12:05:39;18.40;99.90
43679;DHT22;29279;50.858;4.392;2022-09-09T12:08:07;18.40;99.90
43679;DHT22;29279;50.858;4.392;2022-09-09T12:10:37;18.50;99.90
43679;DHT22;29279;50.858;4.392;2022-09-09T12:13:19;18.50;99.90
43679;DHT22;29279;50.858;4.392;2022-09-09T12:15:50;18.40;99.90
43679;DHT22;29279;50.858;4.392;2022-09-09T12:18:33;18.40;99.90
43679;DHT22;29279;50.858;4.392;2022-09-09T12:21:32;18.30;99.90
43679;DHT22;29279;50.858;4.392;2022-09-09T12:24:08;18.30;99.90
43679;DHT22;29279;50.858;4.392;2022-09-09T12:26:43;18.40;99.90
43679;DHT22;29279;50.858;4.392;2022-09-09T12:37:29;19.00;99.90
43679;DHT22;29279;50.858;4.392;2022-09-09T12:39:58;19.20;99.90
43679;DHT22;29279;50.858;4.392;2022-09-09T12:42:25;19.30;99.90
43679;DHT22;29279;50.858;4.392;2022-09-09T12:45:02;19.30;99.90
43679;DHT22;29279;50.858;4.392;2022-09-09T12:47:49;19.30;99.90
43679;DHT22;29279;50.858;4.392;2022-09-09T12:50:19;19.50;99.90
43679;DHT22;29279;50.858;4.392;2022-09-09T12:52:48;19.50;99.90
43679;DHT22;29279;50.858;4.392;2022-09-09T12:55:21;19.50;99.90
43679;DHT22;29279;50.858;4.392;2022-09-09T12:57:51;19.30;99.90
43679;DHT22;29279;50.858;4.392;2022-09-09T13:00:19;19.20;99.90
43679;DHT22;29279;50.858;4.392;2022-09-09T13:03:00;19.90;99.90
43679;DHT22;29279;50.858;4.392;2022-09-09T13:05:27;20.20;99.90
43679;DHT22;29279;50.858;4.392;2022-09-09T13:08:11;19.90;99.90
43679;DHT22;29279;50.858;4.392;2022-09-09T13:10:49;20.10;99.90
43679;DHT22;29279;50.858;4.392;2022-09-09T13:13:26;20.10;99.90
43679;DHT22;29279;50.858;4.392;2022-09-09T13:16:02;19.80;99.90
43679;DHT22;29279;50.858;4.392;2022-09-09T13:18:36;20.10;99.90
43679;DHT22;29279;50.858;4.392;2022-09-09T13:21:03;20.30;99.90
43679;DHT22;29279;50.858;4.392;2022-09-09T13:23:31;20.50;99.90
43679;DHT22;29279;50.858;4.392;2022-09-09T13:26:24;20.60;99.90
43679;DHT22;29279;50.858;4.392;2022-09-09T13:28:51;20.50;99.90
43679;DHT22;29279;50.858;4.392;2022-09-09T13:31:24;20.80;99.90
43679;DHT22;29279;50.858;4.392;2022-09-09T13:33:52;20.60;99.90
43679;DHT22;29279;50.858;4.392;2022-09-09T13:36:31;20.60;99.90
43679;DHT22;29279;50.858;4.392;2022-09-09T13:38:59;20.60;99.90
43679;DHT22;29279;50.858;4.392;2022-09-09T13:44:19;20.60;99.90
43679;DHT22;29279;50.858;4.392;2022-09-09T13:46:45;20.40;99.90
43679;DHT22;29279;50.858;4.392;2022-09-09T13:51:42;21.70;99.90
43679;DHT22;29279;50.858;4.392;2022-09-09T13:54:10;22.60;99.90
43679;DHT22;29279;50.858;4.392;2022-09-09T13:56:38;22.40;99.90
43679;DHT22;29279;50.858;4.392;2022-09-09T13:59:06;22.00;99.90
43679;DHT22;29279;50.858;4.392;2022-09-09T14:01:31;21.60;99.90
43679;DHT22;29279;50.858;4.392;2022-09-09T14:04:00;21.10;99.90
43679;DHT22;29279;50.858;4.392;2022-09-09T14:06:26;21.00;99.90
43679;DHT22;29279;50.858;4.392;2022-09-09T14:08:53;21.60;99.90
43679;DHT22;29279;50.858;4.392;2022-09-09T14:11:20;21.40;99.90
43679;DHT22;29279;50.858;4.392;2022-09-09T14:13:47;21.50;99.90
43679;DHT22;29279;50.858;4.392;2022-09-09T14:16:15;21.50;99.90
43679;DHT22;29279;50.858;4.392;2022-09-09T14:18:41;22.40;99.90
43679;DHT22;29279;50.858;4.392;2022-09-09T14:21:07;22.30;99.90
43679;DHT22;29279;50.858;4.392;2022-09-09T14:23:34;21.90;99.90
43679;DHT22;29279;50.858;4.392;2022-09-09T14:25:59;21.20;99.90
43679;DHT22;29279;50.858;4.392;2022-09-09T14:28:25;20.60;99.90
43679;DHT22;29279;50.858;4.392;2022-09-09T14:30:51;20.40;99.90
43679;DHT22;29279;50.858;4.392;2022-09-09T14:33:16;20.40;99.90
43679;DHT22;29279;50.858;4.392;2022-09-09T14:35:43;20.30;99.90
43679;DHT22;29279;50.858;4.392;2022-09-09T14:38:09;20.30;99.90
43679;DHT22;29279;50.858;4.392;2022-09-09T14:40:37;20.90;99.90
43679;DHT22;29279;50.858;4.392;2022-09-09T14:43:04;21.10;99.90
43679;DHT22;29279;50.858;4.392;2022-09-09T14:45:31;20.80;99.90
43679;DHT22;29279;50.858;4.392;2022-09-09T14:47:56;20.80;99.90
43679;DHT22;29279;50.858;4.392;2022-09-09T14:50:23;20.90;99.90
43679;DHT22;29279;50.858;4.392;2022-09-09T14:52:49;21.10;99.90
43679;DHT22;29279;50.858;4.392;2022-09-09T14:55:16;21.20;99.90
43679;DHT22;29279;50.858;4.392;2022-09-09T14:57:42;21.10;99.90
43679;DHT22;29279;50.858;4.392;2022-09-09T15:00:10;21.50;99.90
43679;DHT22;29279;50.858;4.392;2022-09-09T15:02:36;21.90;99.90
43679;DHT22;29279;50.858;4.392;2022-09-09T15:05:02;21.70;99.90
43679;DHT22;29279;50.858;4.392;2022-09-09T15:07:29;21.30;99.90
43679;DHT22;29279;50.858;4.392;2022-09-09T15:09:57;21.10;99.90
43679;DHT22;29279;50.858;4.392;2022-09-09T15:12:23;21.00;99.90
43679;DHT22;29279;50.858;4.392;2022-09-09T15:14:49;20.90;99.90
43679;DHT22;29279;50.858;4.392;2022-09-09T15:17:16;20.80;99.90
43679;DHT22;29279;50.858;4.392;2022-09-09T15:19:41;20.70;99.90
43679;DHT22;29279;50.858;4.392;2022-09-09T15:22:08;20.70;99.90
43679;DHT22;29279;50.858;4.392;2022-09-09T15:24:34;20.60;99.90
43679;DHT22;29279;50.858;4.392;2022-09-09T15:27:01;20.60;99.90
43679;DHT22;29279;50.858;4.392;2022-09-09T15:29:27;20.50;99.90
43679;DHT22;29279;50.858;4.392;2022-09-09T15:31:56;20.30;99.90
43679;DHT22;29279;50.858;4.392;2022-09-09T15:34:21;20.20;99.90
43679;DHT22;29279;50.858;4.392;2022-09-09T15:36:48;20.00;99.90
43679;DHT22;29279;50.858;4.392;2022-09-09T15:39:17;20.00;99.90
43679;DHT22;29279;50.858;4.392;2022-09-09T15:41:47;19.90;99.90
43679;DHT22;29279;50.858;4.392;2022-09-09T15:44:14;19.90;99.90
43679;DHT22;29279;50.858;4.392;2022-09-09T15:46:43;20.00;99.90
43679;DHT22;29279;50.858;4.392;2022-09-09T15:51:53;20.30;99.90
43679;DHT22;29279;50.858;4.392;2022-09-09T15:54:21;20.50;99.90
43679;DHT22;29279;50.858;4.392;2022-09-09T15:56:57;20.70;99.90
43679;DHT22;29279;50.858;4.392;2022-09-09T15:59:24;20.90;99.90
43679;DHT22;29279;50.858;4.392;2022-09-09T16:01:50;20.90;99.90
43679;DHT22;29279;50.858;4.392;2022-09-09T16:04:19;20.80;99.90
43679;DHT22;29279;50.858;4.392;2022-09-09T16:06:53;20.80;99.90
43679;DHT22;29279;50.858;4.392;2022-09-09T16:09:20;20.70;99.90
43679;DHT22;29279;50.858;4.392;2022-09-09T16:11:46;20.60;99.90
43679;DHT22;29279;50.858;4.392;2022-09-09T16:14:13;20.50;99.90
43679;DHT22;29279;50.858;4.392;2022-09-09T16:16:38;20.40;99.90
43679;DHT22;29279;50.858;4.392;2022-09-09T16:19:09;20.20;99.90
43679;DHT22;29279;50.858;4.392;2022-09-09T16:21:46;20.10;99.90
43679;DHT22;29279;50.858;4.392;2022-09-09T16:24:14;20.10;99.90
43679;DHT22;29279;50.858;4.392;2022-09-09T16:26:43;20.10;99.90
43679;DHT22;29279;50.858;4.392;2022-09-09T16:29:12;20.00;99.90
43679;DHT22;29279;50.858;4.392;2022-09-09T16:31:38;19.90;99.90
43679;DHT22;29279;50.858;4.392;2022-09-09T16:34:06;19.60;99.90
43679;DHT22;29279;50.858;4.392;2022-09-09T16:36:34;19.40;99.90
43679;DHT22;29279;50.858;4.392;2022-09-09T16:39:05;19.00;99.90
43679;DHT22;29279;50.858;4.392;2022-09-09T16:41:32;18.90;99.90
43679;DHT22;29279;50.858;4.392;2022-09-09T16:44:04;18.90;99.90
43679;DHT22;29279;50.858;4.392;2022-09-09T16:46:32;19.00;99.90
43679;DHT22;29279;50.858;4.392;2022-09-09T16:49:00;19.20;99.90
43679;DHT22;29279;50.858;4.392;2022-09-09T16:51:32;19.30;99.90
43679;DHT22;29279;50.858;4.392;2022-09-09T16:54:00;19.40;99.90
43679;DHT22;29279;50.858;4.392;2022-09-09T16:56:29;19.40;99.90
43679;DHT22;29279;50.858;4.392;2022-09-09T16:59:00;19.40;99.90
43679;DHT22;29279;50.858;4.392;2022-09-09T17:01:31;19.30;99.90
43679;DHT22;29279;50.858;4.392;2022-09-09T17:04:00;19.40;99.90
43679;DHT22;29279;50.858;4.392;2022-09-09T17:06:29;19.40;99.90
43679;DHT22;29279;50.858;4.392;2022-09-09T17:09:01;19.30;99.90
43679;DHT22;29279;50.858;4.392;2022-09-09T17:11:27;19.30;99.90
43679;DHT22;29279;50.858;4.392;2022-09-09T17:13:54;19.30;99.90
43679;DHT22;29279;50.858;4.392;2022-09-09T17:16:22;19.20;99.90
43679;DHT22;29279;50.858;4.392;2022-09-09T17:18:50;19.20;99.90
43679;DHT22;29279;50.858;4.392;2022-09-09T17:21:18;19.20;99.90
43679;DHT22;29279;50.858;4.392;2022-09-09T17:23:45;19.30;99.90
43679;DHT22;29279;50.858;4.392;2022-09-09T17:26:13;19.20;99.90
43679;DHT22;29279;50.858;4.392;2022-09-09T17:28:41;19.00;99.90
43679;DHT22;29279;50.858;4.392;2022-09-09T17:31:09;18.90;99.90
43679;DHT22;29279;50.858;4.392;2022-09-09T17:33:39;18.90;99.90
43679;DHT22;29279;50.858;4.392;2022-09-09T17:36:17;18.80;99.90
43679;DHT22;29279;50.858;4.392;2022-09-09T17:38:43;18.70;99.90
43679;DHT22;29279;50.858;4.392;2022-09-09T17:41:10;18.70;99.90
43679;DHT22;29279;50.858;4.392;2022-09-09T17:43:37;18.70;99.90
43679;DHT22;29279;50.858;4.392;2022-09-09T17:48:35;18.40;99.90
43679;DHT22;29279;50.858;4.392;2022-09-09T17:51:03;18.20;99.90
43679;DHT22;29279;50.858;4.392;2022-09-09T17:53:30;18.20;99.90
43679;DHT22;29279;50.858;4.392;2022-09-09T17:56:05;18.10;99.90
43679;DHT22;29279;50.858;4.392;2022-09-09T17:58:31;18.10;99.90
43679;DHT22;29279;50.858;4.392;2022-09-09T18:01:09;18.10;99.90
43679;DHT22;29279;50.858;4.392;2022-09-09T18:03:38;18.10;99.90
43679;DHT22;29279;50.858;4.392;2022-09-09T18:06:06;18.10;99.90